Time;durP1;ratioP1;P1;durP2;ratioP2;P2;SDS_P1;SDS_P2;PMS_P1;PMS_P2;Temp;Humidity;BMP_temperature;BMP_pressure;BME280_temperature;BME280_humidity;BME280_pressure;Samples;Min_cycle;Max_cycle;Signal;HPM_P1;HPM_P2
2021/12/05 00:22:12;;;;;;;0.00;0.00;;;5.90;92.30;;;;;;4131798;28;20050;-63
2021/12/05 00:24:49;;;;;;;0.00;0.00;;;5.80;92.00;;;;;;4119911;28;20460;-64
2021/12/05 00:27:21;;;;;;;0.00;0.00;;;5.80;91.90;;;;;;4119092;28;20042;-64
2021/12/05 00:32:34;;;;;;;0.00;0.00;;;5.80;91.50;;;;;;4127458;28;20050;-63
2021/12/05 00:35:29;;;;;;;0.00;0.00;;;5.80;91.20;;;;;;4118289;28;20042;-63
2021/12/05 00:46:16;;;;;;;0.00;0.00;;;5.80;90.10;;;;;;4148044;28;20070;-63
2021/12/05 00:51:47;;;;;;;0.00;0.00;;;5.90;89.80;;;;;;4156769;28;20115;-63
2021/12/05 00:56:50;;;;;;;0.00;0.00;;;5.90;89.10;;;;;;4147569;28;20053;-56
2021/12/05 01:17:22;;;;;;;0.00;0.00;;;6.10;87.50;;;;;;4178074;28;20073;-61
2021/12/05 01:19:47;;;;;;;0.00;0.00;;;6.10;87.70;;;;;;4178148;28;20060;-62
2021/12/05 01:22:12;;;;;;;0.00;0.00;;;6.10;87.80;;;;;;4163993;28;20052;-60
2021/12/05 01:37:42;;;;;;;0.00;0.00;;;6.00;86.80;;;;;;4167197;28;20072;-57
2021/12/05 02:09:25;;;;;;;0.00;0.00;;;6.00;86.80;;;;;;4164254;28;20096;-56
2021/12/05 02:39:12;;;;;;;0.00;0.00;;;5.90;86.30;;;;;;4135976;28;20288;-62
2021/12/05 02:41:39;;;;;;;0.00;0.00;;;5.90;86.40;;;;;;4149593;28;20108;-59
2021/12/05 02:44:10;;;;;;;0.00;0.00;;;5.80;86.30;;;;;;4151684;28;20057;-54
2021/12/05 02:46:33;;;;;;;0.00;0.00;;;5.90;86.40;;;;;;4179552;28;20525;-60
2021/12/05 02:49:01;;;;;;;0.00;0.00;;;5.90;86.20;;;;;;4162791;28;20132;-61
2021/12/05 02:51:26;;;;;;;0.00;0.00;;;5.90;86.30;;;;;;4160376;28;20076;-59
2021/12/05 02:54:22;;;;;;;0.00;0.00;;;5.80;85.70;;;;;;4191506;28;20124;-57
2021/12/05 02:56:43;;;;;;;0.00;0.00;;;5.80;85.70;;;;;;4168146;28;20608;-59
2021/12/05 02:59:20;;;;;;;0.00;0.00;;;5.70;85.40;;;;;;4182426;28;20049;-56
2021/12/05 03:01:47;;;;;;;0.00;0.00;;;5.70;85.70;;;;;;4168215;28;20115;-60
2021/12/05 03:04:10;;;;;;;0.00;0.00;;;5.70;86.00;;;;;;4168689;28;20091;-62
2021/12/05 03:06:33;;;;;;;0.00;0.00;;;5.70;85.50;;;;;;4181982;28;21110;-51
2021/12/05 03:09:04;;;;;;;0.00;0.00;;;5.70;85.30;;;;;;4182238;28;20127;-61
2021/12/05 03:11:29;;;;;;;0.00;0.00;;;5.70;85.30;;;;;;4168215;28;20045;-62
2021/12/05 03:13:52;;;;;;;0.00;0.00;;;5.70;84.90;;;;;;4182289;28;20053;-62
2021/12/05 03:16:21;;;;;;;0.00;0.00;;;5.60;84.70;;;;;;4154654;28;20462;-53
2021/12/05 03:18:44;;;;;;;0.00;0.00;;;5.70;84.50;;;;;;4181397;28;20051;-57
2021/12/05 03:21:08;;;;;;;0.00;0.00;;;5.60;84.60;;;;;;4158129;28;20049;-63
2021/12/05 03:23:31;;;;;;;0.00;0.00;;;5.70;85.00;;;;;;4151672;28;20553;-54
2021/12/05 03:25:54;;;;;;;0.00;0.00;;;5.60;85.20;;;;;;4165499;28;20410;-59
2021/12/05 03:28:17;;;;;;;0.00;0.00;;;5.60;84.90;;;;;;4151330;28;20133;-55
2021/12/05 03:30:39;;;;;;;0.00;0.00;;;5.60;84.50;;;;;;4165100;28;20482;-61
2021/12/05 03:33:04;;;;;;;0.00;0.00;;;5.60;84.70;;;;;;4165554;28;20041;-55
2021/12/05 03:35:28;;;;;;;0.00;0.00;;;5.60;84.40;;;;;;4151696;28;20073;-54
2021/12/05 03:37:52;;;;;;;0.00;0.00;;;5.70;84.40;;;;;;4165373;28;20072;-54
2021/12/05 03:40:17;;;;;;;0.00;0.00;;;5.70;84.50;;;;;;4165067;28;20087;-57
2021/12/05 03:42:40;;;;;;;0.00;0.00;;;5.70;84.70;;;;;;4165526;28;20423;-55
2021/12/05 03:45:16;;;;;;;0.00;0.00;;;5.80;84.70;;;;;;4164829;28;20045;-57
2021/12/05 03:47:38;;;;;;;0.00;0.00;;;5.80;84.50;;;;;;4165144;28;20041;-62
2021/12/05 03:50:14;;;;;;;0.00;0.00;;;5.80;83.90;;;;;;4164591;28;20132;-58
2021/12/05 03:52:40;;;;;;;0.00;0.00;;;5.70;83.70;;;;;;4151958;28;20100;-62
2021/12/05 03:55:08;;;;;;;0.00;0.00;;;5.70;83.70;;;;;;4177963;28;20049;-63
2021/12/05 03:57:30;;;;;;;0.00;0.00;;;5.70;83.50;;;;;;4165126;28;20148;-63
2021/12/05 03:59:52;;;;;;;0.00;0.00;;;5.70;83.50;;;;;;4151194;28;20092;-56
2021/12/05 04:02:16;;;;;;;0.00;0.00;;;5.80;83.50;;;;;;4160264;28;20502;-59
2021/12/05 04:04:40;;;;;;;0.00;0.00;;;5.80;83.40;;;;;;4151298;28;20517;-56
2021/12/05 04:07:05;;;;;;;0.00;0.00;;;5.80;83.50;;;;;;4178853;28;20044;-60
2021/12/05 04:09:28;;;;;;;0.00;0.00;;;5.90;83.80;;;;;;4151173;28;20046;-61
2021/12/05 04:12:01;;;;;;;0.00;0.00;;;5.90;83.80;;;;;;4150926;28;20045;-58
2021/12/05 04:14:34;;;;;;;0.00;0.00;;;5.80;83.60;;;;;;4166775;28;20045;-63
2021/12/05 04:16:58;;;;;;;0.00;0.00;;;5.70;82.90;;;;;;4181189;28;20048;-56
2021/12/05 04:19:22;;;;;;;0.00;0.00;;;5.60;82.80;;;;;;4181208;28;20044;-62
2021/12/05 04:21:45;;;;;;;0.00;0.00;;;5.70;83.10;;;;;;4180878;28;20133;-61
2021/12/05 04:24:10;;;;;;;0.00;0.00;;;5.70;83.00;;;;;;4180982;28;20067;-60
2021/12/05 04:26:33;;;;;;;0.00;0.00;;;5.60;82.80;;;;;;4180662;28;20090;-56
2021/12/05 04:28:55;;;;;;;0.00;0.00;;;5.60;82.90;;;;;;4181254;28;20045;-58
2021/12/05 04:31:20;;;;;;;0.00;0.00;;;5.50;82.40;;;;;;4167015;28;20538;-59
2021/12/05 04:33:44;;;;;;;0.00;0.00;;;5.50;82.90;;;;;;4180956;28;20071;-57
2021/12/05 04:36:08;;;;;;;0.00;0.00;;;5.50;83.20;;;;;;4167083;28;20435;-61
2021/12/05 04:38:30;;;;;;;0.00;0.00;;;5.40;83.30;;;;;;4166598;28;20057;-63
2021/12/05 04:40:54;;;;;;;0.00;0.00;;;5.40;83.60;;;;;;4181010;28;20561;-63
2021/12/05 04:43:16;;;;;;;0.00;0.00;;;5.40;83.80;;;;;;4170150;28;20072;-62
2021/12/05 04:45:39;;;;;;;0.00;0.00;;;5.40;83.80;;;;;;4183546;28;20045;-61
2021/12/05 04:48:04;;;;;;;0.00;0.00;;;5.40;83.80;;;;;;4183496;28;20037;-62
2021/12/05 04:50:28;;;;;;;0.00;0.00;;;5.40;83.90;;;;;;4196828;28;20484;-63
2021/12/05 04:52:51;;;;;;;0.00;0.00;;;5.40;84.00;;;;;;4197115;28;20046;-63
2021/12/05 04:55:16;;;;;;;0.00;0.00;;;5.40;84.20;;;;;;4194702;28;20044;-53
2021/12/05 04:57:40;;;;;;;0.00;0.00;;;5.50;84.40;;;;;;4167111;28;20052;-52
2021/12/05 05:00:12;;;;;;;0.00;0.00;;;5.50;84.10;;;;;;4166828;28;20049;-59
2021/12/05 05:02:34;;;;;;;;;;;5.50;83.80;;;;;;4180824;28;20075;-62
2021/12/05 05:04:57;;;;;;;0.00;0.00;;;5.50;83.70;;;;;;4180761;28;19924;-62
2021/12/05 05:07:26;;;;;;;0.00;0.00;;;5.50;83.50;;;;;;4182999;28;20053;-59
2021/12/05 05:09:50;;;;;;;0.00;0.00;;;5.50;83.50;;;;;;4184129;28;20045;-57
2021/12/05 05:12:13;;;;;;;0.00;0.00;;;5.50;83.70;;;;;;4183716;28;20061;-58
2021/12/05 05:14:36;;;;;;;0.00;0.00;;;5.50;83.70;;;;;;4183931;28;20045;-62
2021/12/05 05:16:58;;;;;;;0.00;0.00;;;5.40;84.00;;;;;;4184010;28;20041;-58
2021/12/05 05:19:27;;;;;;;0.00;0.00;;;5.40;84.30;;;;;;4184111;28;20037;-59
2021/12/05 05:22:19;;;;;;;0.00;0.00;;;5.40;84.50;;;;;;4183612;28;20134;-56
2021/12/05 05:30:10;;;;;;;0.00;0.00;;;5.40;85.30;;;;;;4183853;28;20095;-61
2021/12/05 05:43:16;;;;;;;0.00;0.00;;;5.30;86.00;;;;;;4200263;28;20045;-62
2021/12/05 05:50:48;;;;;;;0.00;0.00;;;5.30;86.00;;;;;;4186717;28;20072;-54
2021/12/05 05:53:10;;;;;;;0.00;0.00;;;5.30;85.70;;;;;;4205163;28;20052;-54
2021/12/05 05:55:34;;;;;;;0.00;0.00;;;5.40;85.70;;;;;;4198255;28;20091;-58
2021/12/05 05:58:08;;;;;;;0.00;0.00;;;5.40;85.80;;;;;;4183536;28;20056;-60
2021/12/05 06:00:39;;;;;;;0.00;0.00;;;5.40;86.10;;;;;;4169085;28;20824;-60
2021/12/05 06:03:22;;;;;;;0.00;0.00;;;5.40;86.40;;;;;;4169438;28;20038;-60
2021/12/05 06:05:45;;;;;;;0.00;0.00;;;5.50;86.70;;;;;;4183201;28;20057;-51
2021/12/05 06:08:07;;;;;;;0.00;0.00;;;5.30;86.60;;;;;;4183198;28;20053;-59
2021/12/05 06:10:32;;;;;;;0.00;0.00;;;5.20;86.90;;;;;;4182675;28;20049;-58
2021/12/05 06:12:54;;;;;;;0.00;0.00;;;5.10;87.20;;;;;;4183298;28;20059;-58
2021/12/05 06:15:19;;;;;;;0.00;0.00;;;5.10;87.60;;;;;;4182998;28;20107;-55
2021/12/05 06:17:42;;;;;;;0.00;0.00;;;5.10;87.70;;;;;;4182949;28;20045;-61
2021/12/05 06:20:11;;;;;;;0.00;0.00;;;5.20;87.80;;;;;;4182919;28;20053;-61
2021/12/05 06:22:34;;;;;;;0.00;0.00;;;5.20;88.20;;;;;;4182600;28;20049;-55
2021/12/05 06:24:57;;;;;;;0.00;0.00;;;5.20;87.80;;;;;;4182931;28;20048;-61
2021/12/05 06:27:19;;;;;;;0.00;0.00;;;5.30;87.70;;;;;;4182946;28;20075;-58
2021/12/05 06:29:48;;;;;;;0.00;0.00;;;5.20;87.80;;;;;;4182811;28;20053;-54
2021/12/05 06:40:38;;;;;;;0.00;0.00;;;5.20;88.60;;;;;;4199204;28;20090;-58
2021/12/05 06:47:49;;;;;;;0.00;0.00;;;5.20;88.70;;;;;;4198489;28;20086;-60
2021/12/05 06:50:12;;;;;;;0.00;0.00;;;5.20;88.70;;;;;;4198889;28;20136;-60
2021/12/05 06:52:36;;;;;;;0.00;0.00;;;5.10;89.30;;;;;;4200805;28;20144;-59
2021/12/05 06:54:59;;;;;;;0.00;0.00;;;5.10;89.40;;;;;;4196154;28;20139;-61
2021/12/05 06:57:23;;;;;;;0.00;0.00;;;5.20;89.30;;;;;;4196410;28;20055;-61
2021/12/05 06:59:47;;;;;;;0.00;0.00;;;5.20;89.40;;;;;;4185007;28;20040;-57
2021/12/05 07:02:10;;;;;;;0.00;0.00;;;5.20;89.30;;;;;;4182126;28;20041;-57
2021/12/05 07:06:55;;;;;;;0.00;0.00;;;5.30;89.40;;;;;;4182371;28;20045;-59
2021/12/05 07:09:18;;;;;;;0.00;0.00;;;5.20;89.60;;;;;;4168608;28;20041;-60
2021/12/05 07:11:53;;;;;;;0.00;0.00;;;5.20;89.60;;;;;;4181918;28;20048;-62
2021/12/05 07:42:27;;;;;;;0.00;0.00;;;5.30;89.80;;;;;;4214353;28;20052;-55
2021/12/05 07:44:55;;;;;;;0.00;0.00;;;5.20;90.00;;;;;;4215124;28;20044;-61
2021/12/05 07:47:20;;;;;;;0.00;0.00;;;5.10;90.10;;;;;;4214887;28;20047;-57
2021/12/05 07:49:42;;;;;;;0.00;0.00;;;4.90;90.50;;;;;;4214751;28;20524;-60
2021/12/05 07:52:06;;;;;;;0.00;0.00;;;4.90;90.60;;;;;;4183520;28;20052;-59
2021/12/05 07:57:00;;;;;;;0.00;0.00;;;4.80;90.70;;;;;;4181521;28;20045;-55
2021/12/05 08:15:17;;;;;;;0.00;0.00;;;5.00;90.00;;;;;;4188118;28;20040;-59
2021/12/05 08:17:40;;;;;;;0.00;0.00;;;5.10;89.70;;;;;;4197968;28;20135;-60
2021/12/05 08:20:04;;;;;;;0.00;0.00;;;5.30;89.50;;;;;;4185826;28;20044;-56
2021/12/05 08:22:27;;;;;;;0.00;0.00;;;5.50;89.20;;;;;;4167018;28;20059;-54
2021/12/05 08:24:51;;;;;;;0.00;0.00;;;5.60;88.90;;;;;;4181197;28;20057;-55
2021/12/05 08:27:15;;;;;;;0.00;0.00;;;5.60;88.60;;;;;;4181886;28;20059;-54
2021/12/05 08:34:51;;;;;;;0.00;0.00;;;5.70;88.70;;;;;;4180982;28;20083;-54
2021/12/05 09:24:06;;;;;;;0.00;0.00;;;6.80;82.20;;;;;;4194390;28;20044;-53
2021/12/05 10:09:18;;;;;;;0.00;0.00;;;8.10;77.20;;;;;;4167106;28;20081;-58
2021/12/05 10:11:51;;;;;;;0.00;0.00;;;8.40;76.50;;;;;;4166607;28;20042;-53
2021/12/05 10:14:33;;;;;;;0.00;0.00;;;8.50;75.50;;;;;;4166593;28;20128;-59
2021/12/05 10:18:18;;;;;;;0.00;0.00;;;8.40;75.30;;;;;;4166851;28;20469;-54
2021/12/05 10:37:13;;;;;;;0.00;0.00;;;8.40;73.40;;;;;;4182500;28;20041;-53
2021/12/05 10:39:37;;;;;;;0.00;0.00;;;8.30;72.80;;;;;;4183116;28;20468;-55
2021/12/05 10:42:13;;;;;;;0.00;0.00;;;7.90;75.00;;;;;;4182573;28;20045;-52
2021/12/05 10:44:45;;;;;;;0.00;0.00;;;7.90;75.60;;;;;;4182507;28;20052;-53
2021/12/05 10:47:08;;;;;;;0.00;0.00;;;7.70;76.80;;;;;;4182848;28;20063;-49
2021/12/05 10:49:32;;;;;;;0.00;0.00;;;8.00;77.00;;;;;;4182702;28;20056;-54
2021/12/05 10:51:57;;;;;;;0.00;0.00;;;8.20;76.10;;;;;;4196304;28;20040;-54
2021/12/05 10:54:23;;;;;;;0.00;0.00;;;8.20;75.90;;;;;;4187693;28;20044;-49
2021/12/05 10:56:54;;;;;;;0.00;0.00;;;8.70;75.40;;;;;;4199379;28;20064;-52
2021/12/05 10:59:20;;;;;;;0.00;0.00;;;9.20;74.60;;;;;;4199158;28;20139;-54
2021/12/05 11:01:48;;;;;;;0.00;0.00;;;9.10;73.20;;;;;;4201984;28;20489;-49
2021/12/05 11:04:23;;;;;;;0.00;0.00;;;9.20;72.50;;;;;;4215584;28;20051;-48
2021/12/05 11:07:18;;;;;;;0.00;0.00;;;9.10;72.40;;;;;;4201494;28;20090;-54
2021/12/05 11:09:46;;;;;;;0.00;0.00;;;9.00;72.60;;;;;;4215832;28;20097;-55
2021/12/05 11:12:19;;;;;;;0.00;0.00;;;8.80;72.60;;;;;;4215556;28;20520;-52
2021/12/05 11:14:51;;;;;;;0.00;0.00;;;8.70;72.80;;;;;;4215318;28;20662;-55
2021/12/05 11:17:21;;;;;;;0.00;0.00;;;8.60;73.20;;;;;;4215631;28;20039;-49
2021/12/05 11:19:58;;;;;;;0.00;0.00;;;8.50;73.20;;;;;;4215658;28;20040;-49
2021/12/05 11:22:25;;;;;;;0.00;0.00;;;8.40;73.00;;;;;;4214971;28;20140;-54
2021/12/05 11:24:59;;;;;;;0.00;0.00;;;8.50;73.30;;;;;;4215343;28;20101;-55
2021/12/05 11:27:29;;;;;;;0.00;0.00;;;8.70;70.70;;;;;;4215655;28;20455;-52
2021/12/05 11:30:13;;;;;;;0.00;0.00;;;8.50;69.70;;;;;;4215194;28;20064;-54
2021/12/05 11:32:41;;;;;;;0.00;0.00;;;8.60;69.90;;;;;;4166920;28;20037;-53
2021/12/05 11:35:20;;;;;;;0.00;0.00;;;8.70;70.80;;;;;;4182234;28;20069;-59
2021/12/05 11:38:27;;;;;;;0.00;0.00;;;8.80;69.60;;;;;;4181960;28;20514;-57
2021/12/05 11:40:55;;;;;;;0.00;0.00;;;8.40;70.10;;;;;;4181473;28;20672;-53
2021/12/05 11:43:22;;;;;;;0.00;0.00;;;8.30;70.80;;;;;;4181920;28;20057;-50
2021/12/05 11:46:05;;;;;;;0.00;0.00;;;8.50;70.30;;;;;;4182014;28;20072;-53
2021/12/05 11:48:51;;;;;;;0.00;0.00;;;8.30;68.40;;;;;;4181389;28;20061;-56
2021/12/05 11:51:22;;;;;;;0.00;0.00;;;8.20;69.20;;;;;;4158023;28;20042;-54
2021/12/05 11:53:46;;;;;;;;;;;8.40;69.30;;;;;;4165520;28;20045;-52
2021/12/05 11:56:10;;;;;;;0.00;0.00;;;8.40;69.40;;;;;;4178959;28;19978;-56
2021/12/05 11:58:33;;;;;;;0.00;0.00;;;8.40;69.60;;;;;;4178255;28;20078;-54
2021/12/05 12:01:03;;;;;;;0.00;0.00;;;8.30;70.00;;;;;;4174720;28;20044;-50
2021/12/05 12:03:32;;;;;;;0.00;0.00;;;8.40;70.00;;;;;;4162385;28;20042;-54
2021/12/05 12:05:55;;;;;;;0.00;0.00;;;8.40;70.10;;;;;;4148915;28;20052;-49
2021/12/05 12:08:19;;;;;;;0.00;0.00;;;8.40;69.70;;;;;;4161964;28;20049;-58
2021/12/05 12:10:50;;;;;;;0.00;0.00;;;8.40;69.40;;;;;;4162201;28;20061;-53
2021/12/05 12:13:23;;;;;;;0.00;0.00;;;8.40;69.30;;;;;;4162424;28;20050;-58
2021/12/05 12:15:58;;;;;;;0.00;0.00;;;8.50;68.50;;;;;;4162233;28;20049;-60
2021/12/05 12:18:29;;;;;;;0.00;0.00;;;8.50;68.70;;;;;;4161836;28;20046;-59
2021/12/05 12:20:52;;;;;;;0.00;0.00;;;8.60;68.40;;;;;;4148516;28;20057;-55
2021/12/05 12:23:16;;;;;;;0.00;0.00;;;8.70;68.40;;;;;;4162416;28;20472;-61
2021/12/05 12:25:40;;;;;;;0.00;0.00;;;8.80;67.70;;;;;;4148459;28;20554;-63
2021/12/05 12:28:05;;;;;;;0.00;0.00;;;8.90;67.60;;;;;;4175497;28;20045;-56
2021/12/05 12:30:33;;;;;;;0.00;0.00;;;8.90;67.90;;;;;;4161695;28;20083;-64
2021/12/05 12:33:04;;;;;;;0.00;0.00;;;8.90;67.70;;;;;;4160604;28;20049;-63
2021/12/05 12:35:29;;;;;;;0.00;0.00;;;8.90;67.70;;;;;;4161367;28;20057;-53
2021/12/05 12:38:08;;;;;;;0.00;0.00;;;8.80;67.10;;;;;;4161403;28;20045;-52
2021/12/05 12:40:40;;;;;;;0.00;0.00;;;8.80;67.20;;;;;;4161615;28;20502;-62
2021/12/05 12:43:05;;;;;;;0.00;0.00;;;8.80;67.30;;;;;;4176012;28;20041;-52
2021/12/05 12:45:28;;;;;;;0.00;0.00;;;8.80;66.70;;;;;;4148079;28;20049;-62
2021/12/05 12:47:56;;;;;;;0.00;0.00;;;8.70;66.80;;;;;;4134892;28;20099;-52
2021/12/05 12:50:26;;;;;;;0.00;0.00;;;8.60;66.70;;;;;;4161239;28;20062;-64
2021/12/05 12:53:23;;;;;;;0.00;0.00;;;8.50;67.20;;;;;;4161967;28;20046;-60
2021/12/05 12:56:05;;;;;;;0.00;0.00;;;8.40;67.80;;;;;;4161861;28;20045;-54
2021/12/05 12:58:45;;;;;;;0.00;0.00;;;8.30;68.30;;;;;;4161368;28;20053;-64
2021/12/05 13:12:40;;;;;;;0.00;0.00;;;7.30;72.70;;;;;;4147370;28;20061;-64
2021/12/05 13:15:20;;;;;;;0.00;0.00;;;7.20;72.90;;;;;;4161391;28;20087;-57
2021/12/05 13:18:08;;;;;;;0.00;0.00;;;7.20;73.10;;;;;;4161403;28;20071;-57
2021/12/05 13:20:42;;;;;;;0.00;0.00;;;7.10;73.50;;;;;;4143561;28;20054;-54
2021/12/05 13:23:15;;;;;;;0.00;0.00;;;7.10;74.50;;;;;;4161728;28;20042;-53
2021/12/05 13:25:59;;;;;;;0.00;0.00;;;7.10;74.30;;;;;;4161537;28;20049;-65
2021/12/05 13:28:32;;;;;;;0.00;0.00;;;7.00;74.50;;;;;;4149328;28;20064;-63
2021/12/05 13:30:56;;;;;;;0.00;0.00;;;7.10;75.00;;;;;;4164700;28;20068;-65
2021/12/05 13:33:25;;;;;;;0.00;0.00;;;7.20;74.90;;;;;;4152935;28;20050;-64
2021/12/05 13:35:49;;;;;;;0.00;0.00;;;7.30;74.90;;;;;;4179176;28;20099;-56
2021/12/05 13:38:34;;;;;;;0.00;0.00;;;7.30;74.60;;;;;;4152209;28;20064;-60
2021/12/05 13:41:19;;;;;;;0.00;0.00;;;7.20;74.30;;;;;;4180674;28;20091;-55
2021/12/05 13:43:53;;;;;;;0.00;0.00;;;7.10;74.20;;;;;;4180960;28;20418;-65
2021/12/05 13:46:39;;;;;;;0.00;0.00;;;7.10;74.80;;;;;;4179493;28;20055;-63
2021/12/05 13:49:23;;;;;;;0.00;0.00;;;7.00;75.40;;;;;;4164764;28;20046;-51
2021/12/05 13:51:46;;;;;;;0.00;0.00;;;6.90;75.80;;;;;;4164309;28;20511;-51
2021/12/05 13:54:24;;;;;;;0.00;0.00;;;7.00;75.70;;;;;;4164511;28;20060;-53
2021/12/05 13:56:46;;;;;;;0.00;0.00;;;7.10;75.90;;;;;;4163956;28;20065;-54
2021/12/05 13:59:09;;;;;;;0.00;0.00;;;7.10;75.70;;;;;;4162373;28;20081;-61
2021/12/05 14:01:44;;;;;;;0.00;0.00;;;7.20;75.70;;;;;;4166741;28;20080;-53
2021/12/05 14:04:18;;;;;;;0.00;0.00;;;7.20;75.50;;;;;;4180852;28;20056;-54
2021/12/05 14:07:04;;;;;;;0.00;0.00;;;7.30;75.00;;;;;;4166607;28;20065;-64
2021/12/05 14:09:44;;;;;;;0.00;0.00;;;7.40;74.90;;;;;;4166965;28;20041;-53
2021/12/05 14:12:27;;;;;;;0.00;0.00;;;7.20;74.60;;;;;;4152873;28;20053;-64
2021/12/05 14:14:52;;;;;;;0.00;0.00;;;7.00;75.30;;;;;;4180200;28;20110;-61
2021/12/05 14:17:24;;;;;;;0.00;0.00;;;7.00;75.30;;;;;;4166513;28;20053;-63
2021/12/05 14:19:57;;;;;;;0.00;0.00;;;7.00;75.30;;;;;;4166620;28;20076;-63
2021/12/05 14:22:21;;;;;;;0.00;0.00;;;7.00;75.10;;;;;;4166122;28;20057;-59
2021/12/05 14:24:48;;;;;;;0.00;0.00;;;6.90;74.80;;;;;;4166610;28;20061;-64
2021/12/05 14:27:15;;;;;;;0.00;0.00;;;6.70;75.10;;;;;;4180655;28;20497;-55
2021/12/05 14:29:40;;;;;;;0.00;0.00;;;6.70;75.20;;;;;;4169263;28;20123;-53
2021/12/05 14:32:21;;;;;;;0.00;0.00;;;6.80;75.20;;;;;;4180206;28;20051;-54
2021/12/05 14:34:44;;;;;;;0.00;0.00;;;6.80;75.10;;;;;;4180139;28;20041;-63
2021/12/05 14:37:22;;;;;;;0.00;0.00;;;6.80;75.20;;;;;;4166257;28;20050;-63
2021/12/05 14:39:47;;;;;;;0.00;0.00;;;6.90;75.30;;;;;;4165787;28;20135;-57
2021/12/05 14:42:32;;;;;;;0.00;0.00;;;6.90;75.40;;;;;;4167676;28;20056;-58
2021/12/05 14:45:07;;;;;;;0.00;0.00;;;6.90;75.50;;;;;;4179832;28;20052;-62
2021/12/05 14:47:35;;;;;;;0.00;0.00;;;6.90;75.10;;;;;;4180262;28;20054;-55
2021/12/05 14:50:08;;;;;;;0.00;0.00;;;6.90;75.20;;;;;;4172993;28;20045;-62
2021/12/05 14:52:34;;;;;;;0.00;0.00;;;7.00;75.60;;;;;;4198890;28;20112;-55
2021/12/05 14:54:57;;;;;;;0.00;0.00;;;7.00;75.40;;;;;;4199272;28;20037;-63
2021/12/05 14:57:23;;;;;;;0.00;0.00;;;7.00;75.60;;;;;;4199043;28;20103;-61
2021/12/05 14:59:48;;;;;;;0.00;0.00;;;7.00;75.80;;;;;;4199350;28;20052;-52
2021/12/05 15:02:12;;;;;;;0.00;0.00;;;7.00;75.70;;;;;;4198782;28;20186;-51
2021/12/05 15:04:41;;;;;;;0.00;0.00;;;7.00;75.80;;;;;;4198826;28;20048;-62
2021/12/05 15:07:04;;;;;;;0.00;0.00;;;7.00;75.90;;;;;;4199148;28;20040;-55
2021/12/05 15:09:37;;;;;;;0.00;0.00;;;7.00;75.90;;;;;;4199126;28;20440;-56
2021/12/05 15:12:04;;;;;;;0.00;0.00;;;7.10;76.10;;;;;;4198711;28;20198;-62
2021/12/05 15:14:28;;;;;;;0.00;0.00;;;7.10;76.00;;;;;;4198567;28;20079;-63
2021/12/05 15:17:12;;;;;;;0.00;0.00;;;7.10;76.10;;;;;;4184707;28;20048;-64
2021/12/05 15:19:40;;;;;;;0.00;0.00;;;7.10;76.60;;;;;;4184975;28;20060;-62
2021/12/05 15:22:22;;;;;;;0.00;0.00;;;7.00;76.70;;;;;;4198182;28;20472;-63
2021/12/05 15:24:57;;;;;;;0.00;0.00;;;6.90;77.10;;;;;;4185193;28;20037;-64
2021/12/05 15:27:24;;;;;;;0.00;0.00;;;6.80;77.30;;;;;;4198714;28;20043;-63
2021/12/05 15:29:56;;;;;;;0.00;0.00;;;6.70;78.10;;;;;;4184775;28;20044;-55
2021/12/05 15:32:22;;;;;;;0.00;0.00;;;6.70;78.60;;;;;;4183960;28;20057;-57
2021/12/05 15:34:50;;;;;;;0.00;0.00;;;6.70;79.00;;;;;;4198670;28;20048;-64
2021/12/05 15:37:13;;;;;;;0.00;0.00;;;6.70;79.10;;;;;;4198406;28;20037;-63
2021/12/05 15:39:39;;;;;;;0.00;0.00;;;6.70;79.10;;;;;;4198635;28;20564;-63
2021/12/05 15:42:17;;;;;;;0.00;0.00;;;6.70;79.20;;;;;;4198225;28;20460;-65
2021/12/05 15:44:40;;;;;;;0.00;0.00;;;6.50;79.90;;;;;;4198156;28;20489;-64
2021/12/05 15:47:07;;;;;;;0.00;0.00;;;6.50;80.20;;;;;;4198449;28;20041;-64
2021/12/05 15:50:06;;;;;;;0.00;0.00;;;6.60;80.50;;;;;;4198428;28;20139;-60
2021/12/05 15:53:05;;;;;;;0.00;0.00;;;6.60;81.00;;;;;;4188819;28;20470;-61
2021/12/05 15:55:31;;;;;;;0.00;0.00;;;6.50;81.60;;;;;;4181596;28;20041;-66
2021/12/05 15:58:06;;;;;;;0.00;0.00;;;6.50;81.90;;;;;;4181407;28;20081;-65
2021/12/05 16:00:32;;;;;;;0.00;0.00;;;6.50;82.20;;;;;;4181132;28;20462;-62
2021/12/05 16:03:12;;;;;;;0.00;0.00;;;6.40;82.70;;;;;;4186361;28;20064;-55
2021/12/05 16:05:40;;;;;;;0.00;0.00;;;6.50;82.70;;;;;;4184127;28;20056;-66
2021/12/05 16:08:09;;;;;;;0.00;0.00;;;6.40;83.30;;;;;;4194286;28;20106;-63
2021/12/05 16:10:34;;;;;;;0.00;0.00;;;6.40;83.30;;;;;;4196635;28;20512;-66
2021/12/05 16:12:56;;;;;;;0.00;0.00;;;6.40;83.20;;;;;;4197485;28;20053;-60
2021/12/05 16:15:28;;;;;;;0.00;0.00;;;6.40;83.10;;;;;;4184007;28;20063;-61
2021/12/05 16:17:53;;;;;;;0.00;0.00;;;6.30;83.20;;;;;;4197698;28;20529;-56
2021/12/05 16:20:35;;;;;;;0.00;0.00;;;6.30;83.40;;;;;;4197585;28;20394;-56
2021/12/05 16:23:09;;;;;;;0.00;0.00;;;6.40;83.20;;;;;;4197610;28;20127;-60
2021/12/05 16:25:35;;;;;;;0.00;0.00;;;6.40;83.40;;;;;;4197556;28;20066;-63
2021/12/05 16:28:02;;;;;;;0.00;0.00;;;6.30;83.70;;;;;;4197654;28;20052;-62
2021/12/05 16:30:30;;;;;;;0.00;0.00;;;6.30;84.60;;;;;;4197065;28;20436;-63
2021/12/05 16:32:57;;;;;;;0.00;0.00;;;6.20;84.90;;;;;;4180845;28;20041;-60
2021/12/05 16:35:36;;;;;;;0.00;0.00;;;6.10;84.90;;;;;;4181067;28;20098;-63
2021/12/05 16:38:00;;;;;;;0.00;0.00;;;6.20;85.00;;;;;;4166941;28;20069;-63
2021/12/05 16:40:24;;;;;;;0.00;0.00;;;6.20;84.90;;;;;;4180743;28;20048;-65
2021/12/05 16:42:47;;;;;;;0.00;0.00;;;6.20;84.70;;;;;;4180924;28;20041;-61
2021/12/05 16:45:11;;;;;;;0.00;0.00;;;6.30;84.60;;;;;;4180901;28;20053;-64
2021/12/05 16:47:33;;;;;;;0.00;0.00;;;6.30;84.50;;;;;;4180976;28;20096;-61
2021/12/05 16:49:58;;;;;;;0.00;0.00;;;6.30;84.50;;;;;;4188542;28;20091;-66
2021/12/05 16:52:36;;;;;;;0.00;0.00;;;6.30;84.60;;;;;;4147276;28;20097;-66
2021/12/05 16:55:22;;;;;;;0.00;0.00;;;6.30;84.80;;;;;;4162034;28;20045;-65
2021/12/05 16:57:55;;;;;;;0.00;0.00;;;6.20;85.10;;;;;;4161718;28;20041;-64
2021/12/05 17:00:21;;;;;;;0.00;0.00;;;6.20;85.30;;;;;;4175121;28;20049;-63
2021/12/05 17:03:00;;;;;;;0.00;0.00;;;6.10;85.50;;;;;;4161394;28;20049;-53
2021/12/05 17:05:28;;;;;;;0.00;0.00;;;6.10;85.60;;;;;;4161684;28;20047;-65
2021/12/05 17:08:09;;;;;;;0.00;0.00;;;6.10;85.80;;;;;;4161888;28;20046;-63
2021/12/05 17:10:40;;;;;;;0.00;0.00;;;6.20;85.90;;;;;;4161098;28;20046;-65
2021/12/05 17:13:19;;;;;;;0.00;0.00;;;6.10;85.70;;;;;;4161694;28;20107;-65
2021/12/05 17:15:44;;;;;;;0.00;0.00;;;6.10;85.80;;;;;;4161574;28;20046;-64
2021/12/05 17:18:24;;;;;;;0.00;0.00;;;6.20;85.90;;;;;;4147747;28;20486;-63
2021/12/05 17:20:52;;;;;;;0.00;0.00;;;6.20;85.80;;;;;;4161142;28;20053;-63
2021/12/05 17:23:24;;;;;;;0.00;0.00;;;6.20;85.80;;;;;;4161485;28;20041;-65
2021/12/05 17:25:52;;;;;;;0.00;0.00;;;6.20;86.00;;;;;;4170319;28;20045;-58
2021/12/05 17:28:28;;;;;;;0.00;0.00;;;6.20;85.90;;;;;;4161111;28;20049;-63
2021/12/05 17:30:55;;;;;;;0.00;0.00;;;6.20;86.20;;;;;;4162624;28;20410;-52
2021/12/05 17:33:39;;;;;;;0.00;0.00;;;6.20;86.70;;;;;;4177546;28;20083;-58
2021/12/05 17:36:29;;;;;;;0.00;0.00;;;6.10;86.40;;;;;;4149424;28;20053;-50
2021/12/05 17:38:56;;;;;;;0.00;0.00;;;6.10;86.70;;;;;;4162509;28;20048;-51
2021/12/05 17:41:19;;;;;;;0.00;0.00;;;6.10;86.60;;;;;;4176583;28;20040;-51
2021/12/05 17:43:42;;;;;;;0.00;0.00;;;6.10;86.30;;;;;;4176927;28;20041;-54
2021/12/05 17:46:07;;;;;;;0.00;0.00;;;6.10;86.40;;;;;;4149956;28;20141;-54
2021/12/05 17:48:29;;;;;;;0.00;0.00;;;6.10;86.40;;;;;;4176491;28;20485;-53
2021/12/05 17:50:54;;;;;;;0.00;0.00;;;6.10;86.70;;;;;;4176768;28;20045;-52
2021/12/05 17:53:16;;;;;;;0.00;0.00;;;6.20;87.00;;;;;;4177873;28;20044;-56
2021/12/05 17:55:45;;;;;;;0.00;0.00;;;6.20;86.80;;;;;;4178146;28;20041;-53
2021/12/05 17:58:20;;;;;;;0.00;0.00;;;6.20;86.60;;;;;;4164085;28;20045;-52
2021/12/05 18:00:58;;;;;;;0.00;0.00;;;6.20;86.40;;;;;;4177332;28;20148;-64
2021/12/05 18:03:20;;;;;;;0.00;0.00;;;6.20;86.60;;;;;;4177910;28;20051;-64
2021/12/05 18:05:48;;;;;;;0.00;0.00;;;6.20;86.40;;;;;;4177931;28;20290;-60
2021/12/05 18:08:14;;;;;;;0.00;0.00;;;6.20;86.30;;;;;;4164438;28;20540;-63
2021/12/05 18:10:40;;;;;;;0.00;0.00;;;6.10;86.30;;;;;;4177216;28;20402;-56
2021/12/05 18:13:08;;;;;;;0.00;0.00;;;6.00;86.60;;;;;;4164230;28;20052;-65
2021/12/05 18:15:54;;;;;;;0.00;0.00;;;6.00;86.60;;;;;;4180256;28;20040;-63
2021/12/05 18:18:19;;;;;;;0.00;0.00;;;6.00;86.50;;;;;;4180228;28;20049;-64
2021/12/05 18:20:42;;;;;;;0.00;0.00;;;6.10;86.50;;;;;;4180417;28;20091;-51
2021/12/05 18:23:07;;;;;;;0.00;0.00;;;6.10;86.50;;;;;;4180821;28;20072;-64
2021/12/05 18:25:31;;;;;;;0.00;0.00;;;6.10;86.40;;;;;;4166724;28;20548;-61
2021/12/05 18:27:53;;;;;;;0.00;0.00;;;6.10;86.30;;;;;;4180548;28;20052;-59
2021/12/05 18:30:19;;;;;;;0.00;0.00;;;6.00;86.60;;;;;;4180034;28;20080;-61
2021/12/05 18:32:42;;;;;;;0.00;0.00;;;6.00;86.60;;;;;;4180386;28;20473;-63
2021/12/05 18:35:06;;;;;;;0.00;0.00;;;6.00;86.60;;;;;;4180717;28;20048;-64
2021/12/05 18:37:29;;;;;;;0.00;0.00;;;6.00;86.40;;;;;;4180419;28;20051;-57
2021/12/05 18:39:52;;;;;;;0.00;0.00;;;6.10;86.20;;;;;;4180269;28;20410;-63